Terminal Aerodrome Forecast
Issued by NWS

Home | Current Version | Previous Version | Text Only | Print | Product List | Glossary On
Versions: 1 2 3 4 5 6 7 8 9 10 11 12
779
FTUS44 KCRP 152342
TAFALI
TAF
KALI 152342Z 1600/1624 30006KT P6SM BKN100
      TEMPO 1610/1614 -RA
     FM161400 01006KT P6SM -RA BKN050
     FM161800 03008KT 4SM -RA BR BKN025=

USA.gov is the U.S. government's official web portal to all federal, state and local government web resources and services.